createdAt,value
2018-06-03T00:02:18.673Z,12.00
2018-06-03T00:04:49.502Z,10.00
2018-06-03T00:07:21.113Z,10.00
2018-06-03T00:09:51.844Z,12.00
2018-06-03T00:12:22.695Z,10.33
2018-06-03T00:14:55.346Z,9.17
2018-06-03T00:17:26.989Z,10.40
2018-06-03T00:19:58.621Z,9.60
2018-06-03T00:22:32.406Z,8.67
2018-06-03T00:25:06.280Z,9.29
2018-06-03T00:27:39.985Z,9.43
2018-06-03T00:30:13.679Z,9.00
2018-06-03T00:32:45.145Z,9.00
2018-06-03T00:35:16.450Z,9.33
2018-06-03T00:37:49.511Z,8.50
2018-06-03T00:40:21.644Z,8.60
2018-06-03T00:42:53.036Z,9.33
2018-06-03T00:45:24.746Z,12.33
2018-06-03T00:47:56.068Z,10.00
2018-06-03T00:50:28.276Z,9.40
2018-06-03T00:52:59.658Z,8.00
2018-06-03T00:55:32.891Z,8.33
2018-06-03T00:58:04.341Z,11.00
2018-06-03T01:00:38.622Z,9.00
2018-06-03T01:03:11.919Z,9.00
2018-06-03T01:05:45.953Z,8.57
2018-06-03T01:08:17.268Z,9.00
2018-06-03T01:10:49.493Z,6.00
2018-06-03T01:13:21.777Z,12.00
2018-06-03T01:15:54.092Z,9.00
2018-06-03T01:18:26.281Z,9.00
2018-06-03T01:20:59.490Z,8.00
2018-06-03T01:23:33.038Z,8.00
2018-06-03T01:26:07.200Z,10.29
2018-06-03T01:28:40.732Z,8.50
2018-06-03T01:31:12.870Z,8.00
2018-06-03T01:33:44.321Z,9.67
2018-06-03T01:36:16.497Z,8.40
2018-06-03T01:38:50.851Z,6.57
2018-06-03T01:41:24.737Z,9.43
2018-06-03T01:43:56.122Z,8.33
2018-06-03T01:46:30.374Z,9.86
2018-06-03T01:49:41.266Z,8.14
2018-06-03T01:52:13.537Z,8.40
2018-06-03T01:54:46.795Z,9.33
2018-06-03T01:57:19.911Z,8.83
2018-06-03T01:59:53.105Z,6.50
2018-06-03T02:02:26.999Z,9.57
2018-06-03T02:05:00.381Z,6.00
2018-06-03T02:07:33.377Z,8.83
2018-06-03T02:10:07.322Z,12.40
2018-06-03T02:12:40.712Z,9.17
2018-06-03T02:15:16.012Z,9.00
2018-06-03T02:17:49.326Z,8.50
2018-06-03T02:20:21.785Z,8.80
2018-06-03T02:22:54.923Z,9.17
2018-06-03T02:25:28.906Z,9.57
2018-06-03T02:28:01.096Z,9.00
2018-06-03T02:30:34.484Z,8.00
2018-06-03T02:33:06.696Z,8.00
2018-06-03T02:35:40.597Z,9.43
2018-06-03T02:38:13.140Z,9.00
2018-06-03T02:40:45.306Z,10.00
2018-06-03T02:43:18.503Z,9.83
2018-06-03T02:45:51.870Z,9.00
2018-06-03T02:48:24.050Z,9.80
2018-06-03T02:50:56.337Z,9.40
2018-06-03T02:53:29.514Z,8.67
2018-06-03T02:56:03.274Z,8.67
2018-06-03T02:58:34.886Z,9.00
2018-06-03T03:01:07.086Z,9.40
2018-06-03T03:03:40.287Z,8.33
2018-06-03T03:06:13.331Z,9.33
2018-06-03T03:08:44.823Z,11.67
2018-06-03T03:11:17.306Z,9.40
2018-06-03T03:13:49.601Z,11.80
2018-06-03T03:16:23.964Z,10.71
2018-06-03T03:18:58.161Z,10.43
2018-06-03T03:21:30.836Z,10.33
2018-06-03T03:24:04.316Z,14.00
2018-06-03T03:26:37.877Z,14.67
2018-06-03T03:29:09.780Z,12.33
2018-06-03T03:31:41.588Z,15.00
2018-06-03T03:34:15.461Z,12.00
2018-06-03T03:36:49.756Z,12.00
2018-06-03T03:39:24.401Z,14.00
2018-06-03T03:41:58.190Z,12.67
2018-06-03T03:44:29.653Z,16.00
2018-06-03T03:47:02.059Z,15.00
2018-06-03T03:49:33.361Z,16.33
2018-06-03T03:52:04.648Z,15.00
2018-06-03T03:54:37.164Z,12.50
2018-06-03T03:57:09.103Z,18.33
2018-06-03T03:59:40.462Z,20.67
2018-06-03T04:02:10.822Z,18.33
2018-06-03T04:04:42.178Z,16.00
2018-06-03T04:07:14.829Z,15.00
2018-06-03T04:09:45.256Z,17.33
2018-06-03T04:12:17.562Z,18.33
2018-06-03T04:14:49.807Z,19.33
2018-06-03T04:17:22.131Z,21.00
2018-06-03T04:19:54.720Z,16.67
2018-06-03T04:22:26.125Z,17.33
2018-06-03T04:24:57.559Z,18.33
2018-06-03T04:27:30.334Z,15.00
2018-06-03T04:30:01.726Z,16.00
2018-06-03T04:32:35.863Z,12.00
2018-06-03T04:35:08.277Z,12.75
2018-06-03T04:37:39.579Z,14.33
2018-06-03T04:40:12.830Z,14.33
2018-06-03T04:42:44.125Z,13.33
2018-06-03T04:45:16.914Z,14.33
2018-06-03T04:47:49.121Z,13.25
2018-06-03T04:50:21.797Z,13.40
2018-06-03T04:52:54.022Z,14.50
2018-06-03T04:55:25.381Z,14.00
2018-06-03T04:57:57.869Z,14.25
2018-06-03T05:00:30.182Z,11.60
2018-06-03T05:03:01.326Z,11.00
2018-06-03T05:05:34.894Z,13.20
2018-06-03T05:08:08.894Z,11.86
2018-06-03T05:10:40.169Z,13.00
2018-06-03T05:13:12.082Z,13.00
2018-06-03T05:15:43.312Z,10.67
2018-06-03T05:18:15.208Z,9.33
2018-06-03T05:20:46.626Z,13.33
2018-06-03T05:23:18.519Z,13.67
2018-06-03T05:25:49.823Z,13.00
2018-06-03T05:28:21.177Z,13.33
2018-06-03T05:30:53.761Z,10.00
2018-06-03T05:33:25.234Z,10.00
2018-06-03T05:35:56.693Z,10.00
2018-06-03T05:38:29.023Z,9.33
2018-06-03T05:41:01.292Z,11.00
2018-06-03T05:43:32.597Z,11.33
2018-06-03T05:46:03.897Z,14.33
2018-06-03T05:48:35.549Z,12.67
2018-06-03T05:51:07.061Z,13.33
2018-06-03T05:53:38.411Z,14.00
2018-06-03T05:56:10.290Z,13.00
2018-06-03T05:58:41.816Z,12.67
2018-06-03T06:01:14.554Z,12.00
2018-06-03T06:03:47.939Z,12.40
2018-06-03T06:06:19.421Z,12.00
2018-06-03T06:08:50.730Z,13.00
2018-06-03T06:11:22.068Z,15.00
2018-06-03T06:13:53.345Z,14.00
2018-06-03T06:16:25.703Z,17.00
2018-06-03T06:18:57.073Z,15.33
2018-06-03T06:21:28.414Z,14.67
2018-06-03T06:23:59.744Z,14.00
2018-06-03T06:26:31.015Z,15.00
2018-06-03T06:29:02.405Z,16.33
2018-06-03T06:31:33.730Z,15.00
2018-06-03T06:34:05.021Z,14.33
2018-06-03T06:36:36.326Z,15.67
2018-06-03T06:39:07.976Z,11.00
2018-06-03T06:41:39.352Z,13.33
2018-06-03T06:44:10.939Z,12.00
2018-06-03T06:46:43.174Z,15.25
2018-06-03T06:49:15.779Z,12.40
2018-06-03T06:51:47.064Z,11.67
2018-06-03T06:54:21.567Z,11.29
2018-06-03T06:56:53.220Z,10.00
2018-06-03T06:59:25.447Z,11.33
2018-06-03T07:01:57.192Z,9.33
2018-06-03T07:04:31.858Z,9.86
2018-06-03T07:07:03.533Z,8.00
2018-06-03T07:09:37.445Z,10.14
2018-06-03T07:12:12.882Z,10.00
2018-06-03T07:14:46.023Z,9.60
2018-06-03T07:17:19.407Z,9.50
2018-06-03T07:19:52.482Z,8.67
2018-06-03T07:22:26.918Z,10.14
2018-06-03T07:25:00.341Z,8.67
2018-06-03T07:27:34.400Z,8.00
2018-06-03T07:30:07.604Z,8.67
2018-06-03T07:32:43.175Z,9.86
2018-06-03T07:35:16.432Z,8.50
2018-06-03T07:37:49.954Z,8.00
2018-06-03T07:40:23.877Z,10.29
2018-06-03T07:42:57.471Z,7.83
2018-06-03T07:45:30.509Z,8.50
2018-06-03T07:48:03.959Z,5.00
2018-06-03T07:50:37.073Z,5.50
2018-06-03T07:53:10.208Z,8.00
2018-06-03T07:55:43.835Z,6.17
2018-06-03T07:58:17.292Z,7.67
2018-06-03T08:00:50.440Z,5.67
2018-06-03T08:03:23.572Z,5.67
2018-06-03T08:05:57.128Z,8.17
2018-06-03T08:08:31.369Z,5.83
2018-06-03T08:11:04.883Z,6.00
2018-06-03T08:13:39.721Z,5.33
2018-06-03T08:16:13.048Z,5.00
2018-06-03T08:18:48.016Z,5.83
2018-06-03T08:21:21.363Z,6.00
2018-06-03T08:23:55.067Z,5.83
2018-06-03T08:26:28.292Z,6.67
2018-06-03T08:29:01.875Z,6.50
2018-06-03T08:31:35.956Z,5.17
2018-06-03T08:34:09.457Z,6.50
2018-06-03T08:36:42.595Z,6.17
2018-06-03T08:39:15.824Z,6.00
2018-06-03T08:41:49.226Z,5.50
2018-06-03T08:44:23.848Z,6.33
2018-06-03T08:46:57.329Z,6.50
2018-06-03T08:49:30.299Z,7.17
2018-06-03T08:52:03.929Z,6.83
2018-06-03T08:54:37.581Z,7.17
2018-06-03T08:57:10.716Z,6.33
2018-06-03T08:59:44.769Z,6.50
2018-06-03T09:02:18.041Z,6.50
2018-06-03T09:04:51.756Z,7.00
2018-06-03T09:07:24.976Z,6.00
2018-06-03T09:09:58.427Z,7.50
2018-06-03T09:12:32.389Z,6.67
2018-06-03T09:15:07.242Z,6.00
2018-06-03T09:17:40.563Z,5.17
2018-06-03T09:20:13.848Z,7.83
2018-06-03T09:22:47.157Z,6.00
2018-06-03T09:25:20.948Z,6.83
2018-06-03T09:27:54.159Z,6.17
2018-06-03T09:30:27.585Z,6.17
2018-06-03T09:33:00.882Z,6.50
2018-06-03T09:35:34.651Z,4.67
2018-06-03T09:38:07.801Z,5.00
2018-06-03T09:40:41.259Z,4.33
2018-06-03T09:43:14.365Z,5.83
2018-06-03T09:45:47.908Z,6.50
2018-06-03T09:48:21.283Z,5.50
2018-06-03T09:50:54.742Z,6.00
2018-06-03T09:53:27.926Z,7.33
2018-06-03T09:56:01.464Z,6.00
2018-06-03T09:58:35.892Z,7.00
2018-06-03T10:01:10.367Z,7.33
2018-06-03T10:03:43.711Z,7.33
2018-06-03T10:06:17.355Z,5.50
2018-06-03T10:08:50.582Z,6.00
2018-06-03T10:11:24.098Z,6.83
2018-06-03T10:13:57.230Z,7.33
2018-06-03T10:16:31.763Z,6.67
2018-06-03T10:19:10.407Z,6.67
2018-06-03T10:21:44.336Z,6.50
2018-06-03T10:24:18.611Z,8.17
2018-06-03T10:26:51.700Z,7.00
2018-06-03T10:29:24.793Z,7.50
2018-06-03T10:31:57.957Z,7.50
2018-06-03T10:34:32.029Z,5.50
2018-06-03T10:37:05.157Z,8.33
2018-06-03T10:39:38.976Z,6.33
2018-06-03T10:42:12.094Z,5.83
2018-06-03T10:44:45.331Z,6.33
2018-06-03T10:47:18.506Z,6.00
2018-06-03T10:49:51.755Z,5.83
2018-06-03T10:52:25.099Z,8.17
2018-06-03T10:54:58.197Z,7.17
2018-06-03T10:57:31.478Z,9.00
2018-06-03T11:00:08.451Z,7.33
2018-06-03T11:02:42.003Z,6.83
2018-06-03T11:05:15.316Z,6.67
2018-06-03T11:07:48.754Z,6.67
2018-06-03T11:10:22.369Z,6.33
2018-06-03T11:12:55.612Z,6.00
2018-06-03T11:15:28.814Z,5.33
2018-06-03T11:18:01.961Z,6.67
2018-06-03T11:20:37.325Z,6.00
2018-06-03T11:23:10.352Z,5.67
2018-06-03T11:25:43.951Z,6.83
2018-06-03T11:28:17.117Z,6.50
2018-06-03T11:30:50.312Z,5.50
2018-06-03T11:33:23.922Z,5.67
2018-06-03T11:35:57.169Z,6.17
2018-06-03T11:38:30.432Z,6.67
2018-06-03T11:41:03.677Z,6.17
2018-06-03T11:43:37.551Z,6.17
2018-06-03T11:46:10.731Z,6.83
2018-06-03T11:48:44.263Z,6.00
2018-06-03T11:51:17.570Z,5.17
2018-06-03T11:53:50.825Z,4.67
2018-06-03T11:56:28.926Z,5.67
2018-06-03T11:59:12.049Z,5.33
2018-06-03T12:01:45.359Z,5.00
2018-06-03T12:04:18.575Z,4.00
2018-06-03T12:06:51.694Z,4.17
2018-06-03T12:09:25.014Z,5.83
2018-06-03T12:11:58.282Z,6.00
2018-06-03T12:14:31.552Z,5.50
2018-06-03T12:17:06.965Z,5.83
2018-06-03T12:19:40.698Z,7.00
2018-06-03T12:22:13.826Z,8.17
2018-06-03T12:24:48.207Z,7.33
2018-06-03T12:27:21.452Z,6.00
2018-06-03T12:29:54.697Z,6.33
2018-06-03T12:32:28.100Z,6.50
2018-06-03T12:35:01.288Z,6.50
2018-06-03T12:37:34.487Z,6.50
2018-06-03T12:40:07.894Z,6.50
2018-06-03T12:42:41.084Z,6.17
2018-06-03T12:45:17.784Z,7.00
2018-06-03T12:47:51.253Z,8.50
2018-06-03T12:50:25.563Z,7.33
2018-06-03T12:52:58.855Z,7.67
2018-06-03T12:55:32.056Z,7.33
2018-06-03T12:58:06.112Z,6.17
2018-06-03T13:00:39.297Z,7.67
2018-06-03T13:03:12.566Z,6.83
2018-06-03T13:05:46.198Z,7.33
2018-06-03T13:08:19.522Z,6.50
2018-06-03T13:10:52.716Z,7.33
2018-06-03T13:13:26.169Z,6.50
2018-06-03T13:15:59.980Z,6.33
2018-06-03T13:18:33.933Z,6.17
2018-06-03T13:21:07.456Z,6.83
2018-06-03T13:23:40.645Z,7.00
2018-06-03T13:28:42.585Z,5.75
2018-06-03T13:31:15.747Z,5.67
2018-06-03T13:33:49.262Z,7.00
2018-06-03T13:36:22.458Z,6.00
2018-06-03T13:38:55.799Z,5.83
2018-06-03T13:41:29.371Z,5.33
2018-06-03T13:44:03.066Z,6.50
2018-06-03T13:46:36.295Z,6.83
2018-06-03T13:49:09.770Z,6.00
2018-06-03T13:51:42.953Z,7.33
2018-06-03T13:54:17.474Z,5.33
2018-06-03T13:56:50.642Z,6.83
2018-06-03T13:59:25.377Z,7.50
2018-06-03T14:02:00.173Z,7.33
2018-06-03T14:04:36.763Z,6.00
2018-06-03T14:07:11.546Z,5.50
2018-06-03T14:09:47.747Z,8.00
2018-06-03T14:12:22.429Z,6.83
2018-06-03T14:14:56.175Z,6.33
2018-06-03T14:17:30.481Z,7.17
2018-06-03T14:20:04.024Z,6.50
2018-06-03T14:22:37.256Z,6.33
2018-06-03T14:25:10.475Z,7.50
2018-06-03T14:27:44.472Z,6.67
2018-06-03T14:30:18.776Z,6.50
2018-06-03T14:32:52.201Z,7.17
2018-06-03T14:35:25.473Z,8.00
2018-06-03T14:37:58.301Z,6.00
2018-06-03T14:40:31.643Z,7.83
2018-06-03T14:43:04.588Z,7.50
2018-06-03T14:45:38.683Z,6.00
2018-06-03T14:48:11.601Z,6.67
2018-06-03T14:50:46.865Z,6.50
2018-06-03T14:53:19.980Z,6.00
2018-06-03T14:55:52.941Z,6.67
2018-06-03T14:58:26.182Z,6.67
2018-06-03T15:00:59.428Z,6.33
2018-06-03T15:03:32.602Z,6.33
2018-06-03T15:06:05.526Z,6.17
2018-06-03T15:08:38.343Z,6.50
2018-06-03T15:11:11.516Z,6.00
2018-06-03T15:13:45.084Z,7.33
2018-06-03T15:16:18.798Z,6.33
2018-06-03T15:18:51.635Z,7.33
2018-06-03T15:21:24.601Z,6.17
2018-06-03T15:23:57.788Z,7.50
2018-06-03T15:26:31.017Z,6.83
2018-06-03T15:29:03.876Z,5.50
2018-06-03T15:31:37.050Z,6.33
2018-06-03T15:34:10.010Z,6.00
2018-06-03T15:36:43.275Z,5.33
2018-06-03T15:39:16.253Z,5.00
2018-06-03T15:41:49.238Z,5.83
2018-06-03T15:44:22.092Z,5.33
2018-06-03T15:46:55.042Z,6.00
2018-06-03T15:49:28.127Z,5.83
2018-06-03T15:52:01.043Z,4.17
2018-06-03T15:54:34.053Z,6.33
2018-06-03T15:57:06.961Z,4.50
2018-06-03T15:59:41.029Z,4.33
2018-06-03T16:02:14.203Z,6.17
2018-06-03T16:04:47.377Z,6.33
2018-06-03T16:07:20.521Z,6.00
2018-06-03T16:09:53.709Z,5.17
2018-06-03T16:12:26.932Z,5.00
2018-06-03T16:14:59.746Z,5.00
2018-06-03T16:17:32.804Z,4.83
2018-06-03T16:20:05.878Z,5.83
2018-06-03T16:22:39.104Z,4.33
2018-06-03T16:25:12.128Z,3.33
2018-06-03T16:27:45.446Z,4.33
2018-06-03T16:30:18.481Z,5.00
2018-06-03T16:32:51.773Z,5.50
2018-06-03T16:35:24.956Z,5.00
2018-06-03T16:37:58.397Z,4.50
2018-06-03T16:40:31.706Z,4.33
2018-06-03T16:43:05.676Z,4.67
2018-06-03T16:45:38.782Z,4.00
2018-06-03T16:48:12.155Z,4.17
2018-06-03T16:53:16.017Z,4.50
2018-06-03T16:55:49.534Z,4.83
2018-06-03T16:58:22.451Z,6.17
2018-06-03T17:00:55.404Z,5.00
2018-06-03T17:03:28.735Z,7.00
2018-06-03T17:06:01.712Z,6.00
2018-06-03T17:08:34.717Z,4.33
2018-06-03T17:11:07.630Z,6.50
2018-06-03T17:13:40.556Z,7.33
2018-06-03T17:16:13.684Z,6.50
2018-06-03T17:18:47.809Z,5.00
2018-06-03T17:21:20.738Z,7.83
2018-06-03T17:23:53.908Z,5.83
2018-06-03T17:26:26.864Z,6.33
2018-06-03T17:29:02.152Z,7.00
2018-06-03T17:31:35.410Z,8.00
2018-06-03T17:34:08.764Z,4.00
2018-06-03T17:36:41.880Z,4.83
2018-06-03T17:39:15.191Z,4.83
2018-06-03T17:41:49.090Z,4.17
2018-06-03T17:44:22.161Z,5.00
2018-06-03T17:46:55.027Z,4.00
2018-06-03T17:49:28.785Z,4.67
2018-06-03T17:52:01.663Z,5.50
2018-06-03T17:54:34.703Z,5.00
2018-06-03T17:57:07.655Z,3.67
2018-06-03T17:59:40.882Z,4.67
2018-06-03T18:02:13.707Z,5.50
2018-06-03T18:04:46.659Z,6.00
2018-06-03T18:07:19.575Z,5.67
2018-06-03T18:09:52.500Z,5.67
2018-06-03T18:12:25.346Z,6.00
2018-06-03T18:14:58.260Z,5.83
2018-06-03T18:17:31.610Z,5.50
2018-06-03T18:20:04.695Z,6.83
2018-06-03T18:22:37.548Z,7.00
2018-06-03T18:25:10.543Z,5.00
2018-06-03T18:27:44.301Z,6.83
2018-06-03T18:30:17.294Z,6.50
2018-06-03T18:32:50.210Z,5.50
2018-06-03T18:35:23.234Z,6.50
2018-06-03T18:37:56.135Z,7.83
2018-06-03T18:40:29.400Z,5.83
2018-06-03T18:43:02.419Z,6.67
2018-06-03T18:45:35.582Z,6.00
2018-06-03T18:48:08.471Z,6.00
2018-06-03T18:50:41.312Z,6.33
2018-06-03T18:53:14.272Z,6.00
2018-06-03T18:55:47.150Z,7.00
2018-06-03T18:58:20.170Z,5.67
2018-06-03T19:00:53.332Z,6.00
2018-06-03T19:03:26.293Z,6.00
2018-06-03T19:05:59.128Z,6.83
2018-06-03T19:08:33.346Z,6.67
2018-06-03T19:11:06.216Z,6.00
2018-06-03T19:13:39.994Z,6.83
2018-06-03T19:16:12.093Z,6.60
2018-06-03T19:18:44.907Z,6.40
2018-06-03T19:21:17.900Z,6.00
2018-06-03T19:23:51.133Z,5.83
2018-06-03T19:26:23.960Z,8.50
2018-06-03T19:28:59.285Z,8.00
2018-06-03T19:31:32.232Z,6.67
2018-06-03T19:34:05.143Z,8.00
2018-06-03T19:36:38.255Z,7.33
2018-06-03T19:39:11.462Z,8.00
2018-06-03T19:41:44.384Z,7.33
2018-06-03T19:44:17.303Z,7.00
2018-06-03T19:46:50.221Z,8.50
2018-06-03T19:49:23.114Z,8.33
2018-06-03T19:51:56.848Z,8.67
2018-06-03T19:54:29.731Z,7.00
2018-06-03T19:57:02.694Z,8.67
2018-06-03T19:59:36.989Z,9.14
2018-06-03T20:02:09.054Z,9.80
2018-06-03T20:04:42.017Z,9.00
2018-06-03T20:07:15.381Z,8.80
2018-06-03T20:09:49.281Z,14.00
2018-06-03T20:12:20.289Z,13.00
2018-06-03T20:14:51.444Z,10.67
2018-06-03T20:17:22.564Z,9.00
2018-06-03T20:19:55.812Z,12.00
2018-06-03T20:22:26.903Z,13.00
2018-06-03T20:24:58.931Z,12.75
2018-06-03T20:27:30.391Z,12.67
2018-06-03T20:30:03.672Z,12.60
2018-06-03T20:32:35.962Z,11.00
2018-06-03T20:35:06.984Z,14.67
2018-06-03T20:37:39.047Z,12.25
2018-06-03T20:40:10.769Z,13.00
2018-06-03T20:42:42.108Z,14.00
2018-06-03T20:45:15.157Z,14.00
2018-06-03T20:47:46.238Z,14.00
2018-06-03T20:50:18.206Z,18.67
2018-06-03T20:52:50.573Z,17.67
2018-06-03T20:55:21.605Z,15.00
2018-06-03T20:57:53.560Z,16.67
2018-06-03T21:00:25.537Z,17.00
2018-06-03T21:02:57.395Z,17.67
2018-06-03T21:05:28.808Z,17.00
2018-06-03T21:08:00.716Z,17.33
2018-06-03T21:10:30.936Z,19.33
2018-06-03T21:13:03.210Z,21.00
2018-06-03T21:15:35.139Z,18.33
2018-06-03T21:18:05.354Z,15.67
2018-06-03T21:20:37.667Z,21.67
2018-06-03T21:23:07.892Z,23.00
2018-06-03T21:25:38.127Z,20.00
2018-06-03T21:28:10.509Z,20.33
2018-06-03T21:30:41.201Z,19.00
2018-06-03T21:33:13.272Z,20.33
2018-06-03T21:35:44.516Z,20.00
2018-06-03T21:38:16.650Z,20.67
2018-06-03T21:40:47.826Z,20.67
2018-06-03T21:43:21.900Z,19.00
2018-06-03T21:45:52.174Z,22.00
2018-06-03T21:48:22.386Z,21.33
2018-06-03T21:50:53.625Z,21.67
2018-06-03T21:53:23.806Z,23.00
2018-06-03T21:55:57.118Z,24.00
2018-06-03T21:58:29.829Z,24.67
2018-06-03T22:01:01.896Z,21.33
2018-06-03T22:06:02.910Z,25.67
2018-06-03T22:08:33.056Z,22.67
2018-06-03T22:11:03.310Z,22.00
2018-06-03T22:13:36.807Z,23.00
2018-06-03T22:16:07.216Z,22.00
2018-06-03T22:18:39.198Z,23.67
2018-06-03T22:21:10.025Z,23.67
2018-06-03T22:23:42.328Z,21.67
2018-06-03T22:26:12.585Z,23.33
2018-06-03T22:28:45.114Z,23.00
2018-06-03T22:31:15.347Z,19.33
2018-06-03T22:33:45.937Z,24.33
2018-06-03T22:36:16.131Z,24.00
2018-06-03T22:38:46.395Z,25.67
2018-06-03T22:41:16.707Z,24.00
2018-06-03T22:43:48.794Z,23.00
2018-06-03T22:46:19.469Z,20.00
2018-06-03T22:48:49.621Z,24.00
2018-06-03T22:51:19.808Z,22.00
2018-06-03T22:53:50.011Z,22.33
2018-06-03T22:56:20.184Z,23.33
2018-06-03T22:58:50.841Z,25.33
2018-06-03T23:01:20.919Z,18.67
2018-06-03T23:03:51.364Z,22.67
2018-06-03T23:06:22.008Z,22.00
2018-06-03T23:08:52.538Z,20.33
2018-06-03T23:11:25.690Z,23.33
2018-06-03T23:13:56.329Z,22.67
2018-06-03T23:16:28.526Z,20.67
2018-06-03T23:19:00.922Z,21.67
2018-06-03T23:21:33.216Z,25.67
2018-06-03T23:24:03.763Z,24.00
2018-06-03T23:26:34.301Z,22.67
2018-06-03T23:29:04.840Z,22.33
2018-06-03T23:31:35.742Z,19.00
2018-06-03T23:34:06.267Z,23.00
2018-06-03T23:36:36.699Z,19.00
2018-06-03T23:39:09.500Z,23.33
2018-06-03T23:41:40.123Z,18.67
2018-06-03T23:44:12.399Z,24.00
2018-06-03T23:46:43.138Z,18.67
2018-06-03T23:49:15.576Z,20.33
2018-06-03T23:51:48.279Z,22.00
2018-06-03T23:54:18.818Z,23.33
2018-06-03T23:56:49.257Z,27.67
2018-06-03T23:59:25.005Z,20.33
